Mont-Saint-Guibert, Belgium
Current Conditions -  °F | °C
As of 8:03 PM on Friday 24 Oct 2014 (Local Time) from EBBE Reporting Station
Overcast Overcast  
Wind Chill: 52°   Ceiling: 2900
Heat Index: 52°   Visibility: 6mi
Dew Point: 48°   Wind: 12mph
Humidity: 88%   Direction: 200°SSW
Pressure: 30.03"   Gusts: NA
Location:  50.63°N, 4.61°E
Report Text: EBBE 241803Z AUTO 20010KT 9999 SCT024/// BKN029/// OVC036/// 11/09 Q1017 WHT
Loading
Personal Weather Stations






























Interactive Weather Map
Tropical Storm Tracking
New forecast layout! Learn more

10-Day Weather Forecast

Advertisements
Track Severe Weather on mobile